Louisbourg, Canada
Current Conditions -  °F | °C
As of 8:00 AM on Saturday 01 Nov 2014 (Local Time) from CYQY Reporting Station
Overcast Overcast  
Wind Chill: 37°   Ceiling: 11000
Heat Index: 41°   Visibility: 15mi
Dew Point: 37°   Wind: 6mph
Humidity: 87%   Direction: 20°NNE
Pressure: 30.08"   Gusts: NA
Location:  45.92°N, 59.98°W
Report Text: CYQY 011100Z 02005KT 15SM FEW030 OVC110 05/03 A3008 RMK SC2AS6 SLP188
Loading
Personal Weather Stations






























Interactive Weather Map
Tropical Storm Tracking
New forecast layout! Learn more

10-Day Weather Forecast

Advertisements
Track Severe Weather on mobile